createdAt,value
2022-10-24T00:01:21.631Z,11.37
2022-10-24T00:03:49.605Z,9.77
2022-10-24T00:06:17.477Z,10.00
2022-10-24T00:08:44.903Z,11.27
2022-10-24T00:11:24.314Z,6.50
2022-10-24T00:13:52.232Z,10.33
2022-10-24T00:16:19.593Z,12.70
2022-10-24T00:18:47.416Z,13.17
2022-10-24T00:21:14.768Z,14.17
2022-10-24T00:23:42.155Z,14.90
2022-10-24T00:26:10.341Z,13.20
2022-10-24T00:28:37.896Z,10.97
2022-10-24T00:31:07.587Z,13.00
2022-10-24T00:33:35.178Z,5.83
2022-10-24T00:36:02.372Z,9.73
2022-10-24T00:38:29.575Z,10.70
2022-10-24T00:40:56.861Z,9.60
2022-10-24T00:43:25.611Z,13.37
2022-10-24T00:46:00.873Z,9.30
2022-10-24T00:48:37.943Z,13.97
2022-10-24T00:51:27.708Z,14.77
2022-10-24T00:54:01.722Z,11.77
2022-10-24T00:56:34.370Z,8.70
2022-10-24T00:59:04.007Z,16.93
2022-10-24T01:01:31.389Z,12.30
2022-10-24T01:03:58.525Z,8.70
2022-10-24T01:06:46.701Z,9.30
2022-10-24T01:09:32.570Z,8.60
2022-10-24T01:12:27.791Z,14.00
2022-10-24T01:15:07.347Z,6.10
2022-10-24T01:17:52.568Z,8.53
2022-10-24T01:20:48.681Z,5.70
2022-10-24T01:23:34.384Z,10.03
2022-10-24T01:26:16.629Z,5.40
2022-10-24T01:29:00.582Z,12.70
2022-10-24T01:31:34.259Z,5.70
2022-10-24T01:34:10.197Z,7.20
2022-10-24T01:36:45.372Z,16.10
2022-10-24T01:39:18.579Z,12.20
2022-10-24T01:41:47.186Z,11.47
2022-10-24T01:44:37.851Z,11.10
2022-10-24T01:47:21.917Z,8.23
2022-10-24T01:49:55.557Z,13.87
2022-10-24T01:52:26.162Z,9.27
2022-10-24T01:54:54.255Z,12.63
2022-10-24T01:57:26.354Z,6.90
2022-10-24T01:59:53.743Z,7.17
2022-10-24T02:02:32.778Z,6.37
2022-10-24T02:05:06.163Z,8.87
2022-10-24T02:07:37.038Z,10.83
2022-10-24T02:10:10.738Z,9.90
2022-10-24T02:12:43.163Z,14.33
2022-10-24T02:15:25.553Z,8.97
2022-10-24T02:17:53.327Z,6.33
2022-10-24T02:20:37.387Z,8.47
2022-10-24T02:23:23.895Z,11.07
2022-10-24T02:25:54.659Z,20.77
2022-10-24T02:28:29.399Z,16.07
2022-10-24T02:31:02.622Z,10.70
2022-10-24T02:33:30.994Z,11.20
2022-10-24T02:35:59.360Z,13.57
2022-10-24T02:38:31.635Z,12.40
2022-10-24T02:41:02.280Z,11.97
2022-10-24T02:43:32.878Z,7.23
2022-10-24T02:46:00.578Z,12.97
2022-10-24T02:48:33.031Z,15.47
2022-10-24T02:51:00.890Z,16.40
2022-10-24T02:53:28.804Z,10.03
2022-10-24T02:55:56.248Z,12.03
2022-10-24T02:58:23.441Z,15.07
2022-10-24T03:00:50.663Z,13.43
2022-10-24T03:03:17.883Z,23.50
2022-10-24T03:05:45.222Z,11.07
2022-10-24T03:08:12.959Z,3.70
2022-10-24T03:10:40.183Z,11.63
2022-10-24T03:13:07.491Z,7.63
2022-10-24T03:15:34.684Z,6.03
2022-10-24T03:18:01.798Z,15.07
2022-10-24T03:20:28.971Z,11.77
2022-10-24T03:22:56.112Z,11.07
2022-10-24T03:25:23.280Z,7.57
2022-10-24T03:27:50.370Z,14.30
2022-10-24T03:30:17.642Z,8.90
2022-10-24T03:32:45.014Z,14.43
2022-10-24T03:35:14.214Z,9.30
2022-10-24T03:37:41.891Z,12.90
2022-10-24T03:40:10.103Z,7.60
2022-10-24T03:42:37.344Z,9.87
2022-10-24T03:45:05.007Z,12.73
2022-10-24T03:47:32.140Z,9.53
2022-10-24T03:49:59.262Z,13.10
2022-10-24T03:52:26.702Z,8.20
2022-10-24T03:54:53.883Z,10.67
2022-10-24T03:59:53.589Z,8.30
2022-10-24T04:02:20.807Z,14.57
2022-10-24T04:04:47.939Z,13.40
2022-10-24T04:07:15.135Z,10.90
2022-10-24T04:09:42.433Z,9.50
2022-10-24T04:12:09.647Z,8.50
2022-10-24T04:14:36.791Z,5.67
2022-10-24T04:17:04.000Z,9.17
2022-10-24T04:19:31.158Z,8.67
2022-10-24T04:21:58.393Z,14.97
2022-10-24T04:24:25.935Z,7.20
2022-10-24T04:26:53.073Z,8.53
2022-10-24T04:29:20.344Z,6.37
2022-10-24T04:31:47.559Z,11.27
2022-10-24T04:34:15.018Z,9.13
2022-10-24T04:36:42.543Z,12.83
2022-10-24T04:39:09.727Z,5.83
2022-10-24T04:41:36.978Z,7.00
2022-10-24T04:44:04.219Z,4.20
2022-10-24T04:46:31.536Z,15.47
2022-10-24T04:48:58.647Z,12.47
2022-10-24T04:51:26.126Z,7.20
2022-10-24T04:53:53.295Z,13.23
2022-10-24T04:56:20.476Z,12.80
2022-10-24T04:58:47.616Z,6.40
2022-10-24T05:01:14.777Z,12.43
2022-10-24T05:03:41.926Z,9.03
2022-10-24T05:06:09.126Z,9.33
2022-10-24T05:08:36.403Z,9.07
2022-10-24T05:11:03.735Z,7.33
2022-10-24T05:13:34.292Z,9.50
2022-10-24T05:16:04.552Z,3.93
2022-10-24T05:18:32.536Z,6.47
2022-10-24T05:21:01.112Z,10.23
2022-10-24T05:23:28.570Z,16.27
2022-10-24T05:25:55.704Z,9.70
2022-10-24T05:28:22.948Z,11.57
2022-10-24T05:30:50.109Z,13.00
2022-10-24T05:33:17.262Z,10.93
2022-10-24T05:35:44.415Z,11.23
2022-10-24T05:38:11.588Z,14.70
2022-10-24T05:40:38.730Z,16.33
2022-10-24T05:43:05.857Z,14.40
2022-10-24T05:45:33.209Z,16.07
2022-10-24T05:48:00.354Z,11.90
2022-10-24T05:50:30.033Z,16.83
2022-10-24T05:52:57.195Z,19.00
2022-10-24T05:55:24.413Z,13.60
2022-10-24T05:57:51.597Z,10.83
2022-10-24T06:00:19.407Z,10.70
2022-10-24T06:05:19.922Z,9.23
2022-10-24T06:07:47.529Z,11.80
2022-10-24T06:10:15.183Z,9.43
2022-10-24T06:12:42.492Z,11.43
2022-10-24T06:15:12.024Z,10.17
2022-10-24T06:17:39.193Z,10.47
2022-10-24T06:20:06.774Z,12.90
2022-10-24T06:22:34.042Z,9.47
2022-10-24T06:25:01.715Z,12.23
2022-10-24T06:27:28.986Z,6.43
2022-10-24T06:29:56.144Z,11.90
2022-10-24T06:32:23.366Z,9.57
2022-10-24T06:34:51.146Z,13.70
2022-10-24T06:37:18.351Z,9.37
2022-10-24T06:39:45.532Z,10.57
2022-10-24T06:42:12.767Z,11.10
2022-10-24T06:44:39.893Z,12.63
2022-10-24T06:47:07.295Z,11.17
2022-10-24T06:49:34.661Z,12.77
2022-10-24T06:52:02.013Z,13.07
2022-10-24T06:54:30.517Z,19.13
2022-10-24T06:56:57.878Z,13.13
2022-10-24T06:59:25.197Z,16.70
2022-10-24T07:01:52.559Z,7.87
2022-10-24T07:04:20.045Z,16.67
2022-10-24T07:06:47.232Z,11.00
2022-10-24T07:09:15.619Z,14.83
2022-10-24T07:11:44.271Z,9.03
2022-10-24T07:14:12.163Z,11.87
2022-10-24T07:16:40.283Z,19.33
2022-10-24T07:19:08.258Z,16.93
2022-10-24T07:21:35.442Z,18.10
2022-10-24T07:24:03.543Z,13.10
2022-10-24T07:26:30.907Z,17.73
2022-10-24T07:31:32.685Z,16.50
2022-10-24T07:34:01.980Z,13.13
2022-10-24T07:36:30.674Z,12.23
2022-10-24T07:38:59.207Z,12.20
2022-10-24T07:41:27.929Z,9.07
2022-10-24T07:43:56.633Z,12.50
2022-10-24T07:46:24.512Z,19.30
2022-10-24T07:48:52.606Z,6.47
2022-10-24T07:51:21.098Z,9.27
2022-10-24T07:53:48.734Z,7.97
2022-10-24T07:56:17.447Z,6.17
2022-10-24T07:58:45.618Z,10.53
2022-10-24T08:01:21.604Z,10.80
2022-10-24T08:03:49.155Z,17.43
2022-10-24T08:06:18.989Z,11.40
2022-10-24T08:08:46.384Z,6.03
2022-10-24T08:11:21.697Z,7.23
2022-10-24T08:13:50.444Z,9.30
2022-10-24T08:16:20.836Z,13.83
2022-10-24T08:18:48.649Z,11.13
2022-10-24T08:21:17.171Z,9.60
2022-10-24T08:23:46.036Z,14.60
2022-10-24T08:26:16.032Z,8.77
2022-10-24T08:28:45.375Z,4.93
2022-10-24T08:31:15.375Z,16.73
2022-10-24T08:33:43.568Z,9.97
2022-10-24T08:36:31.903Z,10.93
2022-10-24T08:38:59.894Z,15.60
2022-10-24T08:41:36.781Z,17.70
2022-10-24T08:44:20.099Z,12.40
2022-10-24T08:47:05.285Z,14.57
2022-10-24T08:49:55.028Z,13.10
2022-10-24T08:52:27.735Z,9.73
2022-10-24T08:54:56.715Z,12.20
2022-10-24T08:57:27.806Z,14.53
2022-10-24T09:00:02.223Z,11.67
2022-10-24T09:02:35.784Z,14.03
2022-10-24T09:05:42.515Z,9.30
2022-10-24T09:08:51.541Z,20.13
2022-10-24T09:11:59.495Z,17.30
2022-10-24T09:14:32.158Z,23.30
2022-10-24T09:17:14.127Z,14.60
2022-10-24T09:19:43.934Z,11.23
2022-10-24T09:22:12.432Z,11.63
2022-10-24T09:24:47.627Z,15.33
2022-10-24T09:27:29.587Z,12.77
2022-10-24T09:30:00.485Z,8.07
2022-10-24T09:32:33.660Z,12.03
2022-10-24T09:35:11.995Z,8.83
2022-10-24T09:37:49.226Z,14.30
2022-10-24T09:40:23.317Z,9.17
2022-10-24T09:43:11.646Z,9.70
2022-10-24T09:45:44.271Z,15.57
2022-10-24T09:48:32.660Z,15.50
2022-10-24T09:51:00.532Z,7.00
2022-10-24T09:53:33.451Z,14.47
2022-10-24T09:56:20.851Z,9.07
2022-10-24T09:58:47.966Z,11.93
2022-10-24T10:01:15.132Z,18.23
2022-10-24T10:03:43.074Z,14.40
2022-10-24T10:06:19.414Z,13.07
2022-10-24T10:08:55.356Z,12.57
2022-10-24T10:11:35.094Z,11.07
2022-10-24T10:14:21.087Z,19.83
2022-10-24T10:16:59.465Z,14.40
2022-10-24T10:19:26.810Z,10.00
2022-10-24T10:21:56.021Z,12.33
2022-10-24T10:24:28.064Z,12.23
2022-10-24T10:26:55.414Z,13.90
2022-10-24T10:29:24.160Z,8.87
2022-10-24T10:32:27.376Z,11.40
2022-10-24T10:35:03.663Z,11.13
2022-10-24T10:37:35.824Z,17.43
2022-10-24T10:40:29.299Z,14.03
2022-10-24T10:43:23.651Z,16.53
2022-10-24T10:46:13.777Z,22.13
2022-10-24T10:49:01.619Z,11.20
2022-10-24T10:51:50.167Z,18.87
2022-10-24T10:54:42.247Z,12.10
2022-10-24T10:57:21.055Z,17.80
2022-10-24T11:00:13.012Z,11.87
2022-10-24T11:02:55.919Z,20.20
2022-10-24T11:06:00.828Z,9.03
2022-10-24T11:09:03.301Z,13.43
2022-10-24T11:11:38.802Z,10.37
2022-10-24T11:14:14.870Z,10.77
2022-10-24T11:16:42.969Z,9.33
2022-10-24T11:19:30.202Z,12.83
2022-10-24T11:22:00.460Z,7.93
2022-10-24T11:24:28.828Z,14.43
2022-10-24T11:27:06.620Z,8.80
2022-10-24T11:29:52.273Z,13.00
2022-10-24T11:32:34.532Z,7.57
2022-10-24T11:35:44.887Z,11.77
2022-10-24T11:38:23.235Z,12.10
2022-10-24T11:40:58.670Z,8.63
2022-10-24T11:43:30.748Z,11.20
2022-10-24T11:46:29.349Z,17.50
2022-10-24T11:49:29.129Z,7.00
2022-10-24T11:52:04.725Z,11.97
2022-10-24T11:54:47.436Z,16.13
2022-10-24T11:57:21.875Z,8.73
2022-10-24T11:59:53.320Z,10.33
2022-10-24T12:02:52.887Z,10.23
2022-10-24T12:05:28.978Z,8.83
2022-10-24T12:08:18.940Z,10.40
2022-10-24T12:11:40.094Z,4.30
2022-10-24T12:14:29.556Z,4.80
2022-10-24T12:17:15.922Z,11.93
2022-10-24T12:19:45.740Z,6.90
2022-10-24T12:22:21.996Z,6.30
2022-10-24T12:25:01.553Z,4.43
2022-10-24T12:27:41.963Z,9.00
2022-10-24T12:30:09.174Z,7.27
2022-10-24T12:32:56.077Z,9.17
2022-10-24T12:35:33.895Z,5.60
2022-10-24T12:38:02.947Z,9.83
2022-10-24T12:40:45.529Z,4.03
2022-10-24T12:43:37.156Z,9.00
2022-10-24T12:46:25.573Z,14.07
2022-10-24T12:48:58.859Z,10.90
2022-10-24T12:51:31.975Z,13.23
2022-10-24T12:54:12.457Z,4.07
2022-10-24T12:56:52.229Z,7.37
2022-10-24T12:59:28.979Z,7.20
2022-10-24T13:02:43.112Z,5.87
2022-10-24T13:05:34.674Z,6.37
2022-10-24T13:08:04.802Z,9.50
2022-10-24T13:11:01.888Z,9.13
2022-10-24T13:13:56.289Z,2.80
2022-10-24T13:16:46.596Z,5.83
2022-10-24T13:19:19.598Z,14.30
2022-10-24T13:21:47.116Z,6.57
2022-10-24T13:24:17.372Z,9.03
2022-10-24T13:26:47.406Z,15.27
2022-10-24T13:29:23.532Z,10.80
2022-10-24T13:32:18.533Z,15.57
2022-10-24T13:34:50.406Z,20.47
2022-10-24T13:37:42.399Z,17.50
2022-10-24T13:40:30.428Z,7.47
2022-10-24T13:43:28.580Z,18.63
2022-10-24T13:46:13.018Z,7.53
2022-10-24T13:48:47.568Z,25.17
2022-10-24T13:51:25.752Z,8.90
2022-10-24T13:53:58.943Z,13.20
2022-10-24T13:56:27.695Z,13.40
2022-10-24T13:58:54.849Z,9.87
2022-10-24T14:01:28.147Z,7.13
2022-10-24T14:03:56.917Z,6.20
2022-10-24T14:06:33.892Z,9.20
2022-10-24T14:09:07.524Z,6.20
2022-10-24T14:11:39.244Z,6.93
2022-10-24T14:14:14.743Z,15.10
2022-10-24T14:16:41.889Z,16.37
2022-10-24T14:19:27.101Z,16.63
2022-10-24T14:21:56.855Z,14.93
2022-10-24T14:24:24.155Z,15.17
2022-10-24T14:26:54.118Z,9.27
2022-10-24T14:29:31.915Z,9.47
2022-10-24T14:32:01.866Z,13.70
2022-10-24T14:34:33.868Z,16.97
2022-10-24T14:37:06.111Z,7.27
2022-10-24T14:39:33.784Z,5.97
2022-10-24T14:42:01.705Z,14.53
2022-10-24T14:44:29.457Z,12.07
2022-10-24T14:47:04.431Z,12.30
2022-10-24T14:49:36.632Z,12.53
2022-10-24T14:52:26.987Z,15.60
2022-10-24T14:55:03.147Z,14.53
2022-10-24T14:57:32.823Z,13.30
2022-10-24T15:00:07.238Z,13.67
2022-10-24T15:02:43.241Z,8.23
2022-10-24T15:05:13.869Z,9.87
2022-10-24T15:07:52.248Z,11.47
2022-10-24T15:10:32.637Z,10.40
2022-10-24T15:13:04.604Z,13.63
2022-10-24T15:15:47.794Z,16.93
2022-10-24T15:18:20.914Z,13.83
2022-10-24T15:20:51.702Z,11.63
2022-10-24T15:23:32.299Z,8.40
2022-10-24T15:26:07.580Z,11.30
2022-10-24T15:28:53.781Z,16.43
2022-10-24T15:31:22.851Z,25.70
2022-10-24T15:33:50.235Z,8.77
2022-10-24T15:36:23.387Z,12.77
2022-10-24T15:38:58.773Z,13.13
2022-10-24T15:41:29.513Z,8.30
2022-10-24T15:43:58.122Z,11.33
2022-10-24T15:46:26.321Z,11.83
2022-10-24T15:48:53.501Z,14.80
2022-10-24T15:51:23.788Z,16.43
2022-10-24T15:53:51.571Z,6.97
2022-10-24T15:56:18.707Z,11.47
2022-10-24T15:58:45.924Z,15.27
2022-10-24T16:01:32.348Z,11.87
2022-10-24T16:04:00.605Z,5.97
2022-10-24T16:06:28.575Z,14.83
2022-10-24T16:08:56.552Z,10.47
2022-10-24T16:11:23.994Z,9.50
2022-10-24T16:13:51.186Z,12.50
2022-10-24T16:16:18.547Z,13.03
2022-10-24T16:18:45.678Z,13.57
2022-10-24T16:21:20.200Z,6.50
2022-10-24T16:23:48.572Z,8.00
2022-10-24T16:26:17.356Z,7.43
2022-10-24T16:28:44.543Z,10.70
2022-10-24T16:31:18.570Z,7.13
2022-10-24T16:33:46.389Z,12.87
2022-10-24T16:36:14.633Z,10.43
2022-10-24T16:38:41.962Z,11.57
2022-10-24T16:41:15.679Z,15.60
2022-10-24T16:43:44.207Z,18.30
2022-10-24T16:46:19.726Z,12.50
2022-10-24T16:48:47.633Z,26.10
2022-10-24T16:51:22.807Z,39.50
2022-10-24T16:53:50.489Z,12.13
2022-10-24T16:56:17.696Z,18.33
2022-10-24T16:58:45.247Z,16.40
2022-10-24T17:01:14.778Z,13.33
2022-10-24T17:03:42.290Z,14.03
2022-10-24T17:06:09.767Z,9.90
2022-10-24T17:08:36.936Z,11.43
2022-10-24T17:11:07.057Z,12.70
2022-10-24T17:13:39.852Z,13.97
2022-10-24T17:16:10.827Z,16.13
2022-10-24T17:18:38.107Z,16.97
2022-10-24T17:21:05.575Z,7.83
2022-10-24T17:23:33.868Z,13.30
2022-10-24T17:26:01.482Z,12.60
2022-10-24T17:28:33.058Z,15.17
2022-10-24T17:31:00.684Z,15.50
2022-10-24T17:33:27.910Z,14.50
2022-10-24T17:35:57.036Z,11.00
2022-10-24T17:38:49.783Z,12.57
2022-10-24T17:41:26.004Z,9.47
2022-10-24T17:43:53.989Z,9.70
2022-10-24T17:46:21.792Z,20.47
2022-10-24T17:48:50.573Z,15.90
2022-10-24T17:51:22.516Z,13.80
2022-10-24T17:53:49.780Z,5.83
2022-10-24T17:56:19.470Z,2.47
2022-10-24T17:58:51.129Z,2.20
2022-10-24T18:01:18.590Z,1.40
2022-10-24T18:03:45.839Z,1.03
2022-10-24T18:06:14.589Z,2.43
2022-10-24T18:08:41.680Z,0.70
2022-10-24T18:11:09.903Z,0.90
2022-10-24T18:13:38.458Z,1.30
2022-10-24T18:16:13.664Z,1.07
2022-10-24T18:18:41.473Z,1.10
2022-10-24T18:21:13.558Z,2.63
2022-10-24T18:23:40.958Z,1.83
2022-10-24T18:26:20.111Z,1.20
2022-10-24T18:28:49.719Z,0.90
2022-10-24T18:31:20.031Z,1.10
2022-10-24T18:33:47.327Z,1.37
2022-10-24T18:36:20.340Z,1.53
2022-10-24T18:38:47.961Z,0.70
2022-10-24T18:41:30.546Z,2.20
2022-10-24T18:44:00.489Z,1.73
2022-10-24T18:46:29.112Z,7.20
2022-10-24T18:48:56.491Z,2.40
2022-10-24T18:51:35.760Z,1.40
2022-10-24T18:54:06.706Z,1.17
2022-10-24T18:56:34.442Z,0.87
2022-10-24T18:59:01.674Z,1.83
2022-10-24T19:01:39.131Z,1.00
2022-10-24T19:04:19.178Z,1.07
2022-10-24T19:06:47.984Z,2.70
2022-10-24T19:09:18.881Z,1.00
2022-10-24T19:11:48.764Z,1.07
2022-10-24T19:14:16.591Z,0.50
2022-10-24T19:16:45.967Z,3.73
2022-10-24T19:19:16.670Z,1.73
2022-10-24T19:21:45.380Z,6.40
2022-10-24T19:24:16.236Z,2.10
2022-10-24T19:26:43.594Z,2.50
2022-10-24T19:29:10.714Z,0.60
2022-10-24T19:31:37.981Z,0.83
2022-10-24T19:34:05.192Z,1.13
2022-10-24T19:36:35.899Z,6.10
2022-10-24T19:39:03.954Z,0.93
2022-10-24T19:41:31.074Z,1.43
2022-10-24T19:43:58.206Z,2.40
2022-10-24T19:46:25.393Z,1.10
2022-10-24T19:48:53.218Z,0.87
2022-10-24T19:51:21.263Z,0.63
2022-10-24T19:53:49.689Z,0.87
2022-10-24T19:56:26.265Z,1.57
2022-10-24T19:58:55.067Z,2.93
2022-10-24T20:01:24.861Z,1.50
2022-10-24T20:03:52.791Z,0.80
2022-10-24T20:06:20.010Z,2.90
2022-10-24T20:08:48.890Z,0.87
2022-10-24T20:11:16.804Z,0.93
2022-10-24T20:13:45.016Z,0.80
2022-10-24T20:16:13.387Z,0.40
2022-10-24T20:18:43.334Z,0.97
2022-10-24T20:21:13.068Z,0.80
2022-10-24T20:23:41.658Z,1.03
2022-10-24T20:26:14.711Z,0.80
2022-10-24T20:28:44.870Z,0.70
2022-10-24T20:31:34.137Z,1.27
2022-10-24T20:34:07.101Z,0.50
2022-10-24T20:36:37.874Z,7.80
2022-10-24T20:39:06.671Z,2.40
2022-10-24T20:41:34.711Z,0.57
2022-10-24T20:44:02.408Z,2.33
2022-10-24T20:46:29.707Z,0.40
2022-10-24T20:48:57.544Z,2.20
2022-10-24T20:51:24.918Z,0.40
2022-10-24T20:53:52.338Z,0.40
2022-10-24T20:56:22.548Z,0.67
2022-10-24T20:58:51.459Z,0.40
2022-10-24T21:01:21.351Z,0.53
2022-10-24T21:03:50.353Z,0.63
2022-10-24T21:06:26.014Z,0.50
2022-10-24T21:08:55.436Z,0.40
2022-10-24T21:11:26.015Z,0.50
2022-10-24T21:13:58.275Z,0.47
2022-10-24T21:16:26.383Z,0.40
2022-10-24T21:18:53.559Z,1.47
2022-10-24T21:21:22.260Z,4.00
2022-10-24T21:24:00.812Z,0.40
2022-10-24T21:26:31.178Z,4.00
2022-10-24T21:29:08.562Z,2.10
2022-10-24T21:31:45.415Z,0.50
2022-10-24T21:34:12.566Z,0.83
2022-10-24T21:36:39.634Z,0.50
2022-10-24T21:39:06.797Z,2.10
2022-10-24T21:41:33.978Z,0.40
2022-10-24T21:44:01.090Z,4.83
2022-10-24T21:46:31.704Z,0.50
2022-10-24T21:48:59.970Z,4.07
2022-10-24T21:51:29.918Z,3.20
2022-10-24T21:53:59.844Z,2.07
2022-10-24T21:56:29.871Z,4.93
2022-10-24T22:01:36.419Z,1.43
2022-10-24T22:04:04.483Z,1.77
2022-10-24T22:06:32.975Z,1.70
2022-10-24T22:09:00.260Z,1.80
2022-10-24T22:11:29.758Z,1.73
2022-10-24T22:13:57.587Z,5.10
2022-10-24T22:16:27.662Z,0.50
2022-10-24T22:18:55.717Z,2.43
2022-10-24T22:21:35.282Z,0.60
2022-10-24T22:24:08.727Z,0.87
2022-10-24T22:26:36.817Z,0.50
2022-10-24T22:29:05.365Z,4.00
2022-10-24T22:31:33.601Z,1.33
2022-10-24T22:34:01.074Z,0.40
2022-10-24T22:36:37.221Z,0.40
2022-10-24T22:39:08.396Z,0.77
2022-10-24T22:41:35.869Z,0.40
2022-10-24T22:44:03.218Z,0.50
2022-10-24T22:47:06.291Z,1.57
2022-10-24T22:50:03.938Z,0.50
2022-10-24T22:52:31.299Z,3.23
2022-10-24T22:54:58.876Z,0.73
2022-10-24T22:57:26.510Z,0.50
2022-10-24T22:59:53.955Z,0.50
2022-10-24T23:02:25.245Z,1.63
2022-10-24T23:05:35.543Z,0.40
2022-10-24T23:08:02.615Z,0.50
2022-10-24T23:10:29.900Z,3.33
2022-10-24T23:12:57.330Z,0.53
2022-10-24T23:15:25.254Z,0.40
2022-10-24T23:17:52.647Z,0.40
2022-10-24T23:20:25.648Z,0.73
2022-10-24T23:23:08.887Z,0.67
2022-10-24T23:25:52.439Z,2.33
2022-10-24T23:28:27.376Z,2.97
2022-10-24T23:30:54.813Z,1.07
2022-10-24T23:33:27.614Z,2.30
2022-10-24T23:35:58.855Z,0.50
2022-10-24T23:38:26.585Z,0.50
2022-10-24T23:40:54.468Z,2.00
2022-10-24T23:43:23.106Z,0.40
2022-10-24T23:46:01.822Z,0.53
2022-10-24T23:49:06.702Z,0.60
2022-10-24T23:52:00.636Z,0.50
2022-10-24T23:54:32.016Z,4.57
2022-10-24T23:56:59.888Z,8.10
2022-10-24T23:59:27.014Z,1.57
